createdAt,value
2019-05-19T00:02:04.314Z,21.25
2019-05-19T00:04:32.709Z,20.80
2019-05-19T00:07:01.123Z,22.05
2019-05-19T00:09:29.771Z,22.55
2019-05-19T00:11:58.169Z,20.55
2019-05-19T00:14:26.545Z,18.65
2019-05-19T00:16:54.947Z,21.87
2019-05-19T00:19:26.780Z,23.50
2019-05-19T00:21:53.477Z,23.75
2019-05-19T00:24:21.872Z,14.15
2019-05-19T00:26:50.268Z,20.23
2019-05-19T00:29:18.668Z,22.73
2019-05-19T00:31:47.055Z,17.70
2019-05-19T00:34:15.457Z,16.97
2019-05-19T00:36:43.852Z,13.95
2019-05-19T00:39:12.252Z,18.20
2019-05-19T00:41:40.643Z,17.60
2019-05-19T00:44:09.048Z,16.80
2019-05-19T00:46:37.451Z,12.25
2019-05-19T00:49:05.935Z,14.43
2019-05-19T00:51:34.659Z,10.78
2019-05-19T00:54:03.062Z,10.48
2019-05-19T00:56:32.773Z,11.33
2019-05-19T00:59:01.937Z,12.07
2019-05-19T01:01:30.316Z,9.43
2019-05-19T01:03:58.716Z,11.40
2019-05-19T01:06:27.111Z,11.95
2019-05-19T01:08:55.530Z,11.20
2019-05-19T01:11:23.924Z,11.43
2019-05-19T01:13:52.331Z,10.13
2019-05-19T01:16:20.818Z,10.58
2019-05-19T01:18:49.283Z,11.53
2019-05-19T01:21:18.311Z,11.05
2019-05-19T01:23:46.709Z,9.80
2019-05-19T01:26:15.101Z,12.20
2019-05-19T01:28:43.509Z,10.72
2019-05-19T01:31:11.895Z,10.40
2019-05-19T01:33:40.341Z,9.88
2019-05-19T01:36:08.796Z,11.75
2019-05-19T01:38:37.195Z,13.32
2019-05-19T01:41:05.585Z,11.88
2019-05-19T01:43:34.009Z,11.38
2019-05-19T01:46:02.384Z,13.58
2019-05-19T01:48:30.777Z,14.70
2019-05-19T01:50:59.164Z,13.83
2019-05-19T01:53:27.561Z,15.13
2019-05-19T01:55:55.953Z,13.55
2019-05-19T01:58:24.351Z,14.58
2019-05-19T02:00:52.759Z,13.95
2019-05-19T02:03:21.152Z,16.40
2019-05-19T02:05:49.561Z,16.00
2019-05-19T02:08:17.957Z,16.55
2019-05-19T02:10:46.371Z,14.73
2019-05-19T02:13:14.759Z,15.00
2019-05-19T02:15:43.401Z,17.82
2019-05-19T02:18:12.025Z,17.92
2019-05-19T02:20:40.421Z,11.35
2019-05-19T02:23:08.829Z,16.32
2019-05-19T02:25:37.246Z,17.95
2019-05-19T02:28:05.650Z,18.25
2019-05-19T02:30:34.376Z,14.40
2019-05-19T02:33:02.789Z,17.05
2019-05-19T02:35:31.252Z,18.70
2019-05-19T02:37:59.648Z,18.60
2019-05-19T02:40:28.985Z,19.45
2019-05-19T02:42:57.370Z,20.85
2019-05-19T02:45:29.200Z,20.90
2019-05-19T02:48:00.232Z,19.70
2019-05-19T02:50:31.467Z,19.15
2019-05-19T02:53:01.314Z,19.45
2019-05-19T02:55:30.641Z,18.50
2019-05-19T02:58:00.382Z,14.25
2019-05-19T03:00:40.647Z,16.48
2019-05-19T03:03:09.031Z,14.73
2019-05-19T03:05:38.229Z,16.20
2019-05-19T03:08:06.636Z,13.75
2019-05-19T03:10:35.289Z,16.37
2019-05-19T03:13:03.678Z,12.00
2019-05-19T03:15:32.078Z,16.62
2019-05-19T03:18:00.466Z,16.48
2019-05-19T03:20:28.867Z,15.03
2019-05-19T03:22:57.260Z,18.55
2019-05-19T03:25:25.668Z,20.40
2019-05-19T03:27:54.054Z,19.75
2019-05-19T03:30:41.711Z,19.55
2019-05-19T03:33:14.414Z,20.20
2019-05-19T03:35:42.813Z,17.37
2019-05-19T03:38:11.204Z,16.40
2019-05-19T03:40:39.608Z,15.50
2019-05-19T03:43:08.000Z,11.55
2019-05-19T03:45:36.395Z,13.40
2019-05-19T03:48:04.965Z,14.63
2019-05-19T03:50:33.365Z,14.13
2019-05-19T03:53:01.769Z,15.05
2019-05-19T03:55:30.165Z,16.00
2019-05-19T03:57:58.571Z,13.75
2019-05-19T04:00:26.957Z,12.03
2019-05-19T04:02:55.351Z,9.88
2019-05-19T04:05:23.729Z,9.70
2019-05-19T04:07:52.119Z,10.05
2019-05-19T04:10:20.648Z,9.18
2019-05-19T04:12:49.051Z,10.10
2019-05-19T04:15:17.719Z,5.55
2019-05-19T04:17:46.111Z,6.05
2019-05-19T04:20:14.829Z,7.60
2019-05-19T04:22:43.217Z,7.40
2019-05-19T04:25:12.080Z,4.97
2019-05-19T04:27:40.469Z,6.75
2019-05-19T04:30:09.341Z,6.25
2019-05-19T04:32:38.046Z,6.37
2019-05-19T04:35:07.065Z,6.78
2019-05-19T04:37:35.480Z,6.37
2019-05-19T04:40:06.588Z,8.15
2019-05-19T04:42:35.037Z,6.50
2019-05-19T04:45:03.519Z,7.08
2019-05-19T04:47:31.904Z,5.08
2019-05-19T04:50:00.284Z,5.30
2019-05-19T04:52:28.681Z,2.90
2019-05-19T04:54:57.073Z,4.70
2019-05-19T04:57:25.476Z,4.50
2019-05-19T04:59:53.892Z,5.08
2019-05-19T05:02:22.288Z,4.83
2019-05-19T05:04:50.673Z,4.25
2019-05-19T05:07:19.056Z,5.62
2019-05-19T05:09:47.451Z,5.65
2019-05-19T05:12:15.838Z,5.28
2019-05-19T05:14:44.606Z,5.60
2019-05-19T05:17:13.291Z,4.75
2019-05-19T05:19:41.688Z,5.20
2019-05-19T05:22:21.761Z,4.28
2019-05-19T05:24:40.204Z,6.72
2019-05-19T05:27:08.598Z,4.53
2019-05-19T05:29:37.063Z,4.40
2019-05-19T05:32:05.477Z,5.12
2019-05-19T05:34:33.994Z,4.37
2019-05-19T05:37:02.354Z,6.30
2019-05-19T05:39:30.740Z,4.92
2019-05-19T05:41:59.460Z,3.40
2019-05-19T05:44:27.849Z,5.30
2019-05-19T05:46:56.248Z,4.40
2019-05-19T05:49:24.641Z,3.75
2019-05-19T05:51:53.030Z,3.67
2019-05-19T05:54:21.428Z,4.22
2019-05-19T05:56:49.807Z,3.17
2019-05-19T05:59:18.212Z,3.40
2019-05-19T06:01:46.596Z,3.55
2019-05-19T06:04:15.003Z,3.30
2019-05-19T06:06:45.790Z,3.12
2019-05-19T06:09:13.511Z,3.42
2019-05-19T06:11:41.892Z,3.08
2019-05-19T06:14:10.287Z,3.52
2019-05-19T06:16:40.300Z,3.05
2019-05-19T06:19:08.699Z,4.65
2019-05-19T06:21:37.246Z,3.35
2019-05-19T06:24:05.683Z,6.95
2019-05-19T06:26:34.091Z,3.05
2019-05-19T06:29:02.495Z,3.90
2019-05-19T06:31:30.899Z,3.35
2019-05-19T06:33:59.289Z,3.85
2019-05-19T06:36:27.702Z,6.33
2019-05-19T06:38:56.373Z,3.40
2019-05-19T06:41:25.167Z,6.10
2019-05-19T06:43:53.567Z,4.45
2019-05-19T06:46:21.951Z,5.53
2019-05-19T06:48:50.341Z,4.30
2019-05-19T06:51:18.746Z,4.03
2019-05-19T06:53:47.140Z,3.92
2019-05-19T06:56:15.876Z,4.17
2019-05-19T06:58:44.255Z,3.65
2019-05-19T07:01:12.651Z,3.87
2019-05-19T07:03:41.042Z,4.37
2019-05-19T07:06:09.466Z,3.62
2019-05-19T07:08:38.121Z,3.90
2019-05-19T07:11:06.640Z,3.67
2019-05-19T07:13:35.030Z,3.45
2019-05-19T07:16:03.438Z,3.58
2019-05-19T07:18:31.861Z,4.00
2019-05-19T07:21:00.275Z,4.50
2019-05-19T07:23:29.049Z,4.33
2019-05-19T07:25:57.545Z,3.80
2019-05-19T07:28:25.931Z,3.60
2019-05-19T07:30:54.321Z,2.98
2019-05-19T07:33:22.794Z,3.47
2019-05-19T07:35:51.295Z,3.35
2019-05-19T07:38:19.679Z,3.55
2019-05-19T07:40:48.073Z,3.37
2019-05-19T07:43:16.474Z,3.50
2019-05-19T07:45:44.880Z,4.28
2019-05-19T07:48:13.272Z,3.42
2019-05-19T07:50:41.697Z,3.47
2019-05-19T07:53:10.121Z,4.58
2019-05-19T07:55:38.504Z,3.92
2019-05-19T07:58:06.904Z,3.45
2019-05-19T08:00:35.709Z,4.55
2019-05-19T08:03:04.213Z,5.20
2019-05-19T08:05:33.697Z,3.22
2019-05-19T08:08:02.100Z,3.80
2019-05-19T08:10:30.504Z,1.98
2019-05-19T08:12:58.909Z,2.90
2019-05-19T08:15:27.283Z,3.37
2019-05-19T08:17:55.707Z,2.70
2019-05-19T08:20:24.146Z,4.00
2019-05-19T08:22:52.567Z,2.92
2019-05-19T08:25:21.018Z,3.10
2019-05-19T08:27:49.416Z,3.45
2019-05-19T08:30:17.853Z,3.00
2019-05-19T08:32:46.249Z,2.70
2019-05-19T08:35:14.712Z,7.00
2019-05-19T08:37:43.115Z,2.85
2019-05-19T08:40:11.776Z,2.50
2019-05-19T08:42:40.167Z,3.05
2019-05-19T08:45:09.141Z,3.37
2019-05-19T08:47:37.535Z,2.67
2019-05-19T08:50:07.260Z,2.90
2019-05-19T08:52:35.652Z,2.40
2019-05-19T08:55:05.085Z,1.98
2019-05-19T08:57:33.476Z,1.87
2019-05-19T09:00:01.973Z,3.15
2019-05-19T09:02:30.447Z,2.47
2019-05-19T09:04:58.847Z,5.83
2019-05-19T09:07:27.235Z,2.08
2019-05-19T09:09:55.632Z,1.98
2019-05-19T09:12:24.037Z,1.70
2019-05-19T09:14:52.426Z,1.70
2019-05-19T09:17:20.831Z,1.95
2019-05-19T09:19:49.968Z,1.67
2019-05-19T09:22:18.371Z,2.22
2019-05-19T09:24:46.780Z,1.98
2019-05-19T09:27:15.152Z,5.80
2019-05-19T09:29:43.608Z,1.90
2019-05-19T09:32:12.005Z,3.92
2019-05-19T09:34:40.411Z,2.98
2019-05-19T09:37:08.793Z,2.52
2019-05-19T09:39:37.426Z,5.60
2019-05-19T09:42:05.815Z,3.60
2019-05-19T09:44:34.219Z,3.15
2019-05-19T09:47:02.607Z,3.87
2019-05-19T09:49:34.282Z,4.05
2019-05-19T09:52:04.616Z,2.60
2019-05-19T09:57:02.542Z,2.83
2019-05-19T09:59:30.919Z,3.47
2019-05-19T10:01:59.321Z,3.55
2019-05-19T10:04:27.715Z,2.98
2019-05-19T10:06:56.176Z,3.08
2019-05-19T10:09:43.924Z,3.00
2019-05-19T10:12:12.320Z,3.42
2019-05-19T10:14:40.741Z,3.85
2019-05-19T10:17:09.121Z,3.10
2019-05-19T10:19:37.591Z,3.55
2019-05-19T10:22:06.060Z,2.92
2019-05-19T10:24:34.500Z,2.98
2019-05-19T10:27:02.875Z,5.00
2019-05-19T10:29:31.257Z,3.65
2019-05-19T10:31:59.661Z,3.40
2019-05-19T10:34:28.053Z,5.17
2019-05-19T10:36:56.460Z,3.10
2019-05-19T10:39:24.843Z,4.72
2019-05-19T10:41:53.248Z,3.50
2019-05-19T10:44:21.633Z,2.92
2019-05-19T10:46:50.031Z,3.00
2019-05-19T10:49:18.496Z,2.92
2019-05-19T10:51:46.886Z,2.87
2019-05-19T10:54:15.266Z,4.50
2019-05-19T10:56:43.672Z,3.30
2019-05-19T10:59:12.061Z,3.92
2019-05-19T11:01:40.460Z,4.92
2019-05-19T11:04:08.850Z,2.85
2019-05-19T11:06:37.258Z,2.42
2019-05-19T11:09:07.681Z,2.55
2019-05-19T11:11:36.160Z,3.10
2019-05-19T11:14:04.680Z,4.35
2019-05-19T11:16:33.081Z,2.83
2019-05-19T11:19:01.524Z,4.37
2019-05-19T11:21:29.926Z,4.40
2019-05-19T11:23:58.320Z,2.60
2019-05-19T11:26:26.717Z,2.67
2019-05-19T11:28:55.115Z,2.90
2019-05-19T11:31:23.511Z,2.30
2019-05-19T11:33:51.896Z,2.95
2019-05-19T11:36:20.296Z,2.10
2019-05-19T11:38:48.672Z,2.17
2019-05-19T11:41:17.084Z,2.30
2019-05-19T11:43:45.520Z,2.72
2019-05-19T11:46:13.932Z,3.02
2019-05-19T11:48:42.352Z,2.80
2019-05-19T11:51:10.735Z,3.30
2019-05-19T11:53:39.129Z,2.75
2019-05-19T11:56:11.161Z,4.47
2019-05-19T11:58:37.630Z,3.47
2019-05-19T12:01:06.012Z,4.80
2019-05-19T12:03:34.418Z,2.80
2019-05-19T12:06:02.808Z,3.85
2019-05-19T12:08:31.224Z,2.27
2019-05-19T12:10:59.607Z,2.30
2019-05-19T12:13:28.009Z,2.10
2019-05-19T12:15:56.470Z,3.15
2019-05-19T12:18:24.872Z,2.17
2019-05-19T12:20:53.261Z,2.65
2019-05-19T12:23:21.657Z,2.37
2019-05-19T12:25:50.038Z,1.82
2019-05-19T12:28:18.467Z,1.92
2019-05-19T12:30:46.845Z,2.25
2019-05-19T12:33:15.252Z,2.55
2019-05-19T12:35:43.638Z,1.80
2019-05-19T12:38:12.024Z,2.90
2019-05-19T12:40:41.072Z,2.30
2019-05-19T12:43:09.469Z,1.82
2019-05-19T12:45:37.864Z,2.35
2019-05-19T12:48:06.248Z,2.70
2019-05-19T12:50:34.631Z,1.95
2019-05-19T12:53:03.054Z,2.37
2019-05-19T12:55:31.486Z,2.08
2019-05-19T12:57:59.912Z,1.87
2019-05-19T13:00:28.301Z,1.80
2019-05-19T13:02:57.013Z,2.92
2019-05-19T13:05:25.448Z,2.02
2019-05-19T13:07:53.856Z,1.82
2019-05-19T13:10:22.235Z,1.87
2019-05-19T13:12:50.626Z,2.62
2019-05-19T13:15:19.420Z,2.33
2019-05-19T13:17:47.795Z,1.67
2019-05-19T13:20:16.366Z,2.50
2019-05-19T13:22:44.757Z,2.33
2019-05-19T13:25:13.439Z,3.75
2019-05-19T13:27:41.825Z,2.05
2019-05-19T13:30:10.464Z,2.25
2019-05-19T13:32:38.871Z,1.80
2019-05-19T13:35:07.596Z,2.25
2019-05-19T13:37:35.964Z,2.52
2019-05-19T13:40:08.101Z,2.60
2019-05-19T13:42:36.478Z,2.83
2019-05-19T13:45:06.875Z,3.67
2019-05-19T13:47:35.327Z,1.70
2019-05-19T13:50:05.660Z,2.90
2019-05-19T13:52:34.048Z,2.20
2019-05-19T13:55:02.451Z,1.67
2019-05-19T13:57:30.835Z,1.72
2019-05-19T13:59:59.237Z,2.25
2019-05-19T14:02:27.645Z,2.47
2019-05-19T14:04:56.045Z,2.60
2019-05-19T14:07:24.499Z,2.80
2019-05-19T14:09:52.890Z,2.67
2019-05-19T14:12:21.275Z,2.00
2019-05-19T14:14:49.680Z,4.30
2019-05-19T14:17:18.122Z,1.95
2019-05-19T14:19:46.567Z,3.25
2019-05-19T14:22:14.948Z,1.92
2019-05-19T14:24:43.343Z,2.00
2019-05-19T14:27:14.219Z,3.60
2019-05-19T14:29:41.873Z,2.60
2019-05-19T14:32:10.243Z,3.05
2019-05-19T14:34:38.657Z,3.55
2019-05-19T14:37:07.045Z,2.20
2019-05-19T14:39:35.436Z,3.17
2019-05-19T14:42:05.468Z,2.90
2019-05-19T14:44:33.865Z,3.15
2019-05-19T14:47:02.244Z,1.70
2019-05-19T14:49:30.641Z,3.65
2019-05-19T14:51:59.046Z,1.80
2019-05-19T14:54:27.472Z,1.90
2019-05-19T14:56:55.864Z,1.60
2019-05-19T14:59:24.263Z,1.55
2019-05-19T15:01:52.725Z,2.42
2019-05-19T15:04:21.108Z,1.50
2019-05-19T15:06:49.509Z,4.28
2019-05-19T15:09:17.892Z,2.45
2019-05-19T15:11:46.292Z,1.95
2019-05-19T15:14:14.687Z,2.33
2019-05-19T15:16:43.361Z,3.80
2019-05-19T15:19:11.744Z,2.52
2019-05-19T15:21:40.140Z,1.70
2019-05-19T15:24:08.526Z,1.72
2019-05-19T15:26:36.929Z,2.22
2019-05-19T15:29:05.310Z,1.85
2019-05-19T15:31:33.711Z,2.10
2019-05-19T15:34:02.433Z,2.42
2019-05-19T15:36:30.829Z,2.83
2019-05-19T15:38:59.208Z,1.67
2019-05-19T15:41:27.669Z,1.80
2019-05-19T15:43:56.048Z,2.85
2019-05-19T15:46:24.437Z,5.12
2019-05-19T15:48:56.262Z,2.17
2019-05-19T15:51:29.000Z,2.75
2019-05-19T15:53:54.785Z,2.52
2019-05-19T15:56:23.163Z,2.05
2019-05-19T15:58:51.557Z,2.20
2019-05-19T16:01:19.935Z,4.15
2019-05-19T16:03:48.324Z,1.67
2019-05-19T16:06:16.712Z,2.00
2019-05-19T16:08:45.125Z,2.50
2019-05-19T16:11:13.573Z,1.60
2019-05-19T16:13:41.968Z,1.60
2019-05-19T16:16:10.731Z,1.67
2019-05-19T16:18:39.156Z,1.67
2019-05-19T16:21:07.556Z,1.50
2019-05-19T16:23:35.952Z,2.85
2019-05-19T16:26:04.336Z,2.55
2019-05-19T16:28:32.720Z,2.47
2019-05-19T16:31:01.104Z,2.15
2019-05-19T16:33:29.495Z,2.50
2019-05-19T16:35:57.950Z,2.55
2019-05-19T16:38:26.356Z,2.10
2019-05-19T16:40:54.744Z,3.70
2019-05-19T16:43:23.707Z,2.02
2019-05-19T16:45:52.096Z,3.47
2019-05-19T16:48:23.306Z,3.25
2019-05-19T16:50:50.842Z,2.12
2019-05-19T16:53:19.349Z,3.62
2019-05-19T16:55:47.735Z,2.15
2019-05-19T16:58:21.107Z,3.17
2019-05-19T17:03:14.104Z,2.75
2019-05-19T17:05:42.490Z,1.98
2019-05-19T17:08:10.905Z,2.08
2019-05-19T17:10:39.310Z,3.58
2019-05-19T17:13:07.691Z,3.22
2019-05-19T17:15:36.102Z,5.12
2019-05-19T17:18:07.883Z,2.62
2019-05-19T17:20:34.688Z,2.55
2019-05-19T17:23:03.077Z,3.60
2019-05-19T17:25:31.482Z,1.57
2019-05-19T17:27:59.935Z,2.00
2019-05-19T17:30:28.329Z,3.67
2019-05-19T17:32:56.709Z,3.65
2019-05-19T17:35:25.116Z,2.67
2019-05-19T17:37:53.501Z,2.20
2019-05-19T17:40:21.956Z,2.60
2019-05-19T17:42:50.369Z,5.47
2019-05-19T17:45:19.498Z,2.20
2019-05-19T17:47:47.874Z,2.37
2019-05-19T17:50:19.625Z,4.22
2019-05-19T17:52:48.019Z,3.65
2019-05-19T17:55:16.476Z,1.80
2019-05-19T17:57:45.400Z,3.50
2019-05-19T18:00:15.606Z,2.62
2019-05-19T18:02:44.006Z,2.50
2019-05-19T18:05:12.470Z,2.05
2019-05-19T18:07:40.860Z,2.05
2019-05-19T18:10:09.391Z,2.30
2019-05-19T18:12:37.786Z,1.98
2019-05-19T18:15:06.721Z,4.25
2019-05-19T18:17:35.132Z,1.45
2019-05-19T18:20:07.258Z,2.00
2019-05-19T18:22:35.652Z,3.45
2019-05-19T18:25:05.582Z,3.47
2019-05-19T18:27:33.964Z,2.70
2019-05-19T18:30:02.378Z,1.90
2019-05-19T18:32:30.777Z,5.37
2019-05-19T18:34:59.171Z,1.87
2019-05-19T18:37:27.598Z,2.42
2019-05-19T18:39:55.989Z,2.75
2019-05-19T18:42:24.367Z,2.50
2019-05-19T18:44:52.779Z,2.20
2019-05-19T18:47:21.165Z,2.02
2019-05-19T18:49:49.572Z,2.30
2019-05-19T18:52:18.008Z,3.72
2019-05-19T18:54:46.412Z,2.08
2019-05-19T18:57:14.873Z,3.12
2019-05-19T18:59:47.272Z,3.17
2019-05-19T19:02:13.812Z,3.65
2019-05-19T19:04:42.255Z,2.02
2019-05-19T19:07:10.659Z,2.50
2019-05-19T19:09:39.027Z,2.20
2019-05-19T19:12:07.420Z,2.05
2019-05-19T19:14:35.807Z,2.15
2019-05-19T19:17:04.208Z,2.15
2019-05-19T19:19:32.597Z,2.72
2019-05-19T19:22:00.996Z,2.75
2019-05-19T19:24:29.386Z,3.70
2019-05-19T19:26:57.772Z,4.42
2019-05-19T19:29:26.363Z,4.40
2019-05-19T19:31:54.777Z,3.33
2019-05-19T19:34:23.149Z,5.75
2019-05-19T19:36:51.539Z,3.83
2019-05-19T19:39:19.931Z,5.25
2019-05-19T19:41:48.395Z,6.67
2019-05-19T19:44:16.791Z,9.50
2019-05-19T19:46:45.180Z,3.62
2019-05-19T19:49:13.606Z,7.60
2019-05-19T19:51:42.000Z,8.10
2019-05-19T19:54:10.389Z,6.08
2019-05-19T19:56:38.788Z,5.10
2019-05-19T19:59:07.184Z,5.15
2019-05-19T20:01:35.576Z,4.70
2019-05-19T20:04:03.951Z,7.20
2019-05-19T20:06:32.374Z,6.17
2019-05-19T20:09:00.759Z,6.08
2019-05-19T20:11:29.144Z,4.12
2019-05-19T20:13:57.546Z,4.28
2019-05-19T20:16:25.990Z,5.00
2019-05-19T20:18:54.411Z,4.95
2019-05-19T20:21:22.792Z,5.22
2019-05-19T20:23:51.210Z,5.47
2019-05-19T20:26:19.652Z,4.12
2019-05-19T20:28:48.048Z,4.95
2019-05-19T20:31:16.460Z,5.72
2019-05-19T20:33:44.854Z,5.67
2019-05-19T20:36:13.492Z,3.62
2019-05-19T20:38:41.908Z,4.05
2019-05-19T20:41:10.568Z,7.45
2019-05-19T20:43:38.983Z,3.83
2019-05-19T20:46:07.360Z,5.45
2019-05-19T20:48:35.753Z,6.25
2019-05-19T20:51:04.140Z,8.68
2019-05-19T20:53:32.546Z,4.58
2019-05-19T20:56:00.987Z,5.30
2019-05-19T20:58:29.372Z,4.22
2019-05-19T21:00:57.766Z,5.05
2019-05-19T21:03:26.493Z,4.33
2019-05-19T21:05:54.880Z,5.67
2019-05-19T21:08:23.285Z,3.12
2019-05-19T21:10:51.941Z,4.40
2019-05-19T21:13:20.345Z,4.25
2019-05-19T21:15:48.733Z,5.85
2019-05-19T21:18:17.127Z,3.55
2019-05-19T21:20:45.524Z,5.25
2019-05-19T21:23:13.931Z,6.55
2019-05-19T21:25:42.334Z,4.87
2019-05-19T21:28:10.710Z,9.20
2019-05-19T21:30:39.394Z,4.22
2019-05-19T21:33:07.788Z,4.47
2019-05-19T21:35:36.185Z,4.20
2019-05-19T21:38:04.640Z,4.42
2019-05-19T21:40:33.039Z,5.33
2019-05-19T21:43:01.433Z,4.85
2019-05-19T21:45:29.807Z,3.92
2019-05-19T21:47:58.207Z,5.15
2019-05-19T21:50:26.597Z,5.35
2019-05-19T21:52:54.987Z,6.28
2019-05-19T21:55:23.381Z,5.50
2019-05-19T21:57:51.760Z,4.42
2019-05-19T22:00:22.136Z,4.22
2019-05-19T22:02:50.526Z,4.78
2019-05-19T22:05:18.925Z,4.22
2019-05-19T22:07:58.130Z,4.55
2019-05-19T22:10:26.525Z,4.67
2019-05-19T22:12:55.171Z,4.62
2019-05-19T22:15:23.561Z,5.75
2019-05-19T22:17:51.950Z,4.92
2019-05-19T22:20:20.362Z,4.53
2019-05-19T22:23:36.840Z,4.55
2019-05-19T22:26:05.249Z,3.15
2019-05-19T22:28:33.635Z,3.83
2019-05-19T22:31:02.055Z,4.22
2019-05-19T22:33:30.431Z,3.50
2019-05-19T22:35:58.904Z,3.77
2019-05-19T22:38:27.290Z,3.58
2019-05-19T22:40:55.691Z,3.60
2019-05-19T22:43:24.076Z,3.60
2019-05-19T22:45:52.464Z,3.22
2019-05-19T22:48:20.873Z,4.55
2019-05-19T22:50:49.275Z,3.20
2019-05-19T22:53:17.665Z,4.78
2019-05-19T22:55:46.110Z,2.92
2019-05-19T22:58:14.493Z,3.75
2019-05-19T23:00:42.880Z,4.05
2019-05-19T23:03:11.261Z,4.75
2019-05-19T23:05:39.667Z,5.62
2019-05-19T23:08:08.047Z,4.95
2019-05-19T23:10:36.443Z,4.78
2019-05-19T23:13:08.065Z,3.60
2019-05-19T23:15:34.961Z,5.03
2019-05-19T23:18:03.352Z,3.75
2019-05-19T23:20:31.754Z,4.70
2019-05-19T23:23:00.519Z,4.05
2019-05-19T23:25:28.904Z,3.65
2019-05-19T23:27:57.314Z,4.75
2019-05-19T23:30:25.693Z,4.92
2019-05-19T23:32:54.083Z,4.10
2019-05-19T23:35:22.470Z,4.00
2019-05-19T23:37:50.856Z,2.77
2019-05-19T23:40:19.263Z,3.58
2019-05-19T23:42:47.661Z,2.55
2019-05-19T23:45:16.056Z,3.37
2019-05-19T23:47:44.441Z,2.98
2019-05-19T23:50:12.894Z,3.65
2019-05-19T23:52:41.371Z,2.65
2019-05-19T23:55:09.869Z,3.27
2019-05-19T23:57:38.267Z,4.30
